Terminal Aerodrome Forecast
Issued by NWS Wilmington, OH

Current Version | Previous Version | Graphics & Text | Print | Product List | Glossary On
Versions: 1 2 3 4 5 6 7 8 9 10 11 12 13 14 15 16 17 18 19 20 21 22
445
FTUS41 KILN 192334
TAFILN
TAF
KILN 192334Z 2000/2024 20010KT P6SM BKN080
     FM200300 19012G19KT P6SM BKN250
     FM200600 20012G20KT P6SM SCT025 BKN050
     FM201500 20015G25KT P6SM BKN040
     FM201700 20018G32KT P6SM BKN040=

USA.gov is the U.S. government's official web portal to all federal, state and local government web resources and services.